Terminal Aerodrome Forecast
Issued by NWS

Home | Current Version | Previous Version | Text Only | Print | Product List | Glossary On
Versions: 1 2 3 4 5 6 7 8 9 10 11 12
000
FTUS45 KRIW 102300
TAFJAC
TAF
KJAC 102340Z 1100/1124 VRB06KT P6SM VCSH SCT060 OVC090
     FM110200 VRB05KT P6SM SCT090
     FM111800 21008KT P6SM VCSH SCT080 BKN110
     FM112100 24010KT P6SM VCTS SCT080CB OVC110
      AMD LTD TO CLD VIS AND WIND=

USA.gov is the U.S. government's official web portal to all federal, state and local government web resources and services.